Time;durP1;ratioP1;P1;durP2;ratioP2;P2;SDS_P1;SDS_P2;PMS_P1;PMS_P2;Temp;Humidity;BMP_temperature;BMP_pressure;BME280_temperature;BME280_humidity;BME280_pressure;Samples;Min_cycle;Max_cycle;Signal;HPM_P1;HPM_P2
2023/11/11 00:01:49;;;;;;;11.40;4.70;;;;;;;;;;10505408;28;20036;-68
2023/11/11 00:06:49;;;;;;;8.10;4.00;;;;;;;;;;10505251;28;20025;-66
2023/11/11 00:11:49;;;;;;;6.47;3.80;;;;;;;;;;10506440;28;20295;-66
2023/11/11 00:16:50;;;;;;;8.45;3.65;;;;;;;;;;10505728;28;20059;-67
2023/11/11 00:21:53;;;;;;;5.03;3.20;;;;;;;;;;10500987;28;20021;-67
2023/11/11 00:26:53;;;;;;;5.07;3.30;;;;;;;;;;10502789;28;20020;-67
2023/11/11 00:31:53;;;;;;;5.47;3.15;;;;;;;;;;10502072;28;20502;-68
2023/11/11 00:36:54;;;;;;;5.07;2.55;;;;;;;;;;10503005;28;20081;-67
2023/11/11 00:41:54;;;;;;;3.60;2.60;;;;;;;;;;10505170;28;20214;-67
2023/11/11 00:46:54;;;;;;;4.97;2.72;;;;;;;;;;10487208;28;20201;-67
2023/11/11 00:51:55;;;;;;;4.65;2.08;;;;;;;;;;10505104;28;20079;-66
2023/11/11 00:56:56;;;;;;;3.53;2.67;;;;;;;;;;10505103;28;20377;-67
2023/11/11 01:01:59;;;;;;;7.25;4.38;;;;;;;;;;10508309;28;20082;-67
2023/11/11 01:06:59;;;;;;;9.07;4.22;;;;;;;;;;10486531;28;20051;-67
2023/11/11 01:11:59;;;;;;;5.80;3.60;;;;;;;;;;10504577;28;20020;-66
2023/11/11 01:17:02;;;;;;;18.50;4.05;;;;;;;;;;10504526;28;20036;-67
2023/11/11 01:22:03;;;;;;;7.30;3.67;;;;;;;;;;10494769;28;20024;-67
2023/11/11 01:27:03;;;;;;;6.60;3.58;;;;;;;;;;10504010;28;20027;-67
2023/11/11 01:32:05;;;;;;;8.23;3.67;;;;;;;;;;10503676;28;20356;-66
2023/11/11 01:37:07;;;;;;;6.65;4.47;;;;;;;;;;10499701;28;20208;-68
2023/11/11 01:42:08;;;;;;;2.67;1.90;;;;;;;;;;10492095;28;20096;-66
2023/11/11 01:47:08;;;;;;;6.00;3.17;;;;;;;;;;10503208;28;20191;-67
2023/11/11 01:52:09;;;;;;;4.63;2.80;;;;;;;;;;10500825;28;20040;-66
2023/11/11 01:57:09;;;;;;;5.13;3.30;;;;;;;;;;10497480;28;20044;-73
2023/11/11 02:02:11;;;;;;;4.80;3.20;;;;;;;;;;10479426;28;20210;-72
2023/11/11 02:07:11;;;;;;;7.18;3.78;;;;;;;;;;10502485;28;20338;-73
2023/11/11 02:12:12;;;;;;;5.40;3.53;;;;;;;;;;10503108;28;20024;-73
2023/11/11 02:17:12;;;;;;;6.33;3.60;;;;;;;;;;10501737;28;20028;-73
2023/11/11 02:22:13;;;;;;;3.55;2.78;;;;;;;;;;10501852;28;20039;-73
2023/11/11 02:27:14;;;;;;;6.20;3.10;;;;;;;;;;10502358;28;20063;-72
2023/11/11 02:32:14;;;;;;;5.60;3.65;;;;;;;;;;10502098;28;20067;-72
2023/11/11 02:37:15;;;;;;;5.13;3.57;;;;;;;;;;10501684;28;20319;-72
2023/11/11 02:42:15;;;;;;;7.05;3.22;;;;;;;;;;10487518;28;20075;-72
2023/11/11 02:47:15;;;;;;;6.13;3.28;;;;;;;;;;10480006;28;20330;-72
2023/11/11 02:52:15;;;;;;;5.17;3.40;;;;;;;;;;10498336;28;20016;-73
2023/11/11 02:57:16;;;;;;;4.30;3.33;;;;;;;;;;10490677;28;20088;-73
2023/11/11 03:02:16;;;;;;;6.18;3.42;;;;;;;;;;10494988;28;20048;-72
2023/11/11 03:07:17;;;;;;;4.40;3.55;;;;;;;;;;10493032;28;20047;-73
2023/11/11 03:12:17;;;;;;;6.07;3.30;;;;;;;;;;10500466;28;20032;-72
2023/11/11 03:17:17;;;;;;;6.90;3.45;;;;;;;;;;10500536;28;20028;-72
2023/11/11 03:22:18;;;;;;;8.85;4.80;;;;;;;;;;10500034;28;20203;-73
2023/11/11 03:27:18;;;;;;;8.33;4.47;;;;;;;;;;10500080;28;20055;-72
2023/11/11 03:32:18;;;;;;;7.10;4.35;;;;;;;;;;10499954;28;20353;-73
2023/11/11 03:37:19;;;;;;;6.13;3.20;;;;;;;;;;10499840;28;20029;-72
2023/11/11 03:42:19;;;;;;;7.07;3.85;;;;;;;;;;10499790;28;20098;-73
2023/11/11 03:47:19;;;;;;;5.25;3.65;;;;;;;;;;10499619;28;20330;-73
2023/11/11 03:52:19;;;;;;;10.10;4.40;;;;;;;;;;10499632;28;20059;-73
2023/11/11 03:57:20;;;;;;;5.30;3.60;;;;;;;;;;10499562;28;20306;-72
2023/11/11 04:02:20;;;;;;;5.75;3.67;;;;;;;;;;10498946;28;20033;-72
2023/11/11 04:07:21;;;;;;;4.95;3.65;;;;;;;;;;10499317;28;20019;-72
2023/11/11 04:12:22;;;;;;;4.45;3.17;;;;;;;;;;10499474;28;20024;-73
2023/11/11 04:17:23;;;;;;;5.82;3.13;;;;;;;;;;10499083;28;20031;-73
2023/11/11 04:22:23;;;;;;;8.60;3.67;;;;;;;;;;10498761;28;20031;-74
2023/11/11 04:27:23;;;;;;;5.28;3.35;;;;;;;;;;10499105;28;20016;-73
2023/11/11 04:32:23;;;;;;;5.43;3.20;;;;;;;;;;10490836;28;20044;-73
2023/11/11 04:37:24;;;;;;;5.05;3.25;;;;;;;;;;10501159;28;20042;-73
2023/11/11 04:42:24;;;;;;;5.22;2.90;;;;;;;;;;10506046;28;20028;-73
2023/11/11 04:47:25;;;;;;;5.60;2.83;;;;;;;;;;10522059;28;20255;-72
2023/11/11 04:52:25;;;;;;;5.80;2.85;;;;;;;;;;10505563;28;20028;-72
2023/11/11 04:57:26;;;;;;;3.30;2.22;;;;;;;;;;10505707;28;20200;-73
2023/11/11 05:02:26;;;;;;;4.32;3.15;;;;;;;;;;10505254;28;20025;-73
2023/11/11 05:07:26;;;;;;;5.57;2.40;;;;;;;;;;10505288;28;20200;-74
2023/11/11 05:12:27;;;;;;;3.13;2.10;;;;;;;;;;10504874;28;20024;-72
2023/11/11 05:17:28;;;;;;;4.22;2.92;;;;;;;;;;10505017;28;20098;-73
2023/11/11 05:22:29;;;;;;;4.63;2.85;;;;;;;;;;10504617;28;20173;-72
2023/11/11 05:27:29;;;;;;;6.93;4.82;;;;;;;;;;10504275;28;20091;-72
2023/11/11 05:32:29;;;;;;;9.68;5.75;;;;;;;;;;10504411;28;20090;-72
2023/11/11 05:37:30;;;;;;;12.67;7.33;;;;;;;;;;10504382;28;20040;-72
2023/11/11 05:42:30;;;;;;;12.07;5.87;;;;;;;;;;10503775;28;20035;-71
2023/11/11 05:47:30;;;;;;;10.15;5.18;;;;;;;;;;10503990;28;20016;-73
2023/11/11 05:52:30;;;;;;;8.20;4.05;;;;;;;;;;10503567;28;20215;-72
2023/11/11 05:57:31;;;;;;;7.03;4.10;;;;;;;;;;10503311;28;20024;-72
2023/11/11 06:02:31;;;;;;;9.35;4.97;;;;;;;;;;10503172;28;20258;-72
2023/11/11 06:07:32;;;;;;;12.57;6.07;;;;;;;;;;10502811;28;20024;-72
2023/11/11 06:12:32;;;;;;;12.65;6.10;;;;;;;;;;10502516;28;20035;-73
2023/11/11 06:17:32;;;;;;;9.20;6.20;;;;;;;;;;10502487;28;20032;-72
2023/11/11 06:22:33;;;;;;;10.15;6.03;;;;;;;;;;10502154;28;20331;-73
2023/11/11 06:27:33;;;;;;;10.27;5.87;;;;;;;;;;10500120;28;20039;-74
2023/11/11 06:32:34;;;;;;;13.80;6.53;;;;;;;;;;10492065;28;20235;-75
2023/11/11 06:37:37;;;;;;;9.68;5.47;;;;;;;;;;10457353;28;20025;-74
2023/11/11 06:42:38;;;;;;;7.63;5.22;;;;;;;;;;10453948;28;20342;-72
2023/11/11 06:47:38;;;;;;;8.10;4.60;;;;;;;;;;10467723;28;20016;-72
2023/11/11 06:52:38;;;;;;;8.38;4.20;;;;;;;;;;10436047;28;20102;-72
2023/11/11 06:57:41;;;;;;;6.95;4.07;;;;;;;;;;10454849;28;20073;-73
2023/11/11 07:02:41;;;;;;;4.93;2.60;;;;;;;;;;10455459;28;20043;-78
2023/11/11 07:07:41;;;;;;;2.72;2.03;;;;;;;;;;10458199;28;20319;-79
2023/11/11 07:12:43;;;;;;;5.68;3.45;;;;;;;;;;10436374;28;20071;-66
2023/11/11 07:17:44;;;;;;;5.28;3.55;;;;;;;;;;10433551;28;20037;-69
2023/11/11 07:22:45;;;;;;;12.55;4.90;;;;;;;;;;10463453;28;20235;-70
2023/11/11 07:27:45;;;;;;;13.10;6.35;;;;;;;;;;10444459;28;20041;-69
2023/11/11 07:32:45;;;;;;;16.67;7.35;;;;;;;;;;10472912;28;20111;-67
2023/11/11 07:37:49;;;;;;;21.65;7.47;;;;;;;;;;10500086;28;20038;-68
2023/11/11 07:42:50;;;;;;;13.45;6.57;;;;;;;;;;10499468;28;20028;-68
2023/11/11 07:47:51;;;;;;;14.23;5.88;;;;;;;;;;10499943;28;20078;-68
2023/11/11 07:52:54;;;;;;;9.52;5.55;;;;;;;;;;10496085;28;20017;-68
2023/11/11 07:57:54;;;;;;;9.25;5.80;;;;;;;;;;10495734;28;20028;-69
2023/11/11 08:02:55;;;;;;;13.10;5.70;;;;;;;;;;10495665;28;20284;-69
2023/11/11 08:07:59;;;;;;;11.65;6.68;;;;;;;;;;10498766;28;20013;-69
2023/11/11 08:12:59;;;;;;;18.70;6.97;;;;;;;;;;10500193;28;20051;-68
2023/11/11 08:17:59;;;;;;;11.50;4.88;;;;;;;;;;10507119;28;20326;-70
2023/11/11 08:22:59;;;;;;;6.80;4.30;;;;;;;;;;10506746;28;20050;-69
2023/11/11 08:28:00;;;;;;;9.23;4.80;;;;;;;;;;10498880;28;20306;-69
2023/11/11 08:33:02;;;;;;;10.18;5.53;;;;;;;;;;10489559;28;20286;-70
2023/11/11 08:38:03;;;;;;;10.60;4.55;;;;;;;;;;10488283;28;20196;-69
2023/11/11 08:43:04;;;;;;;19.23;5.50;;;;;;;;;;10505299;28;20028;-69
2023/11/11 08:48:05;;;;;;;11.60;5.28;;;;;;;;;;10510829;28;20198;-69
2023/11/11 08:53:05;;;;;;;15.07;5.45;;;;;;;;;;10505542;28;20090;-69
2023/11/11 08:58:06;;;;;;;14.05;5.15;;;;;;;;;;10505053;28;20056;-69
2023/11/11 09:03:06;;;;;;;12.25;5.95;;;;;;;;;;10504819;28;20039;-70
2023/11/11 09:08:06;;;;;;;20.60;6.10;;;;;;;;;;10504991;28;20448;-69
2023/11/11 09:13:10;;;;;;;11.45;6.13;;;;;;;;;;10504994;28;20063;-69
2023/11/11 09:18:11;;;;;;;17.63;8.35;;;;;;;;;;10507752;28;20101;-69
2023/11/11 09:23:12;;;;;;;7.95;4.53;;;;;;;;;;10502873;28;20370;-69
2023/11/11 09:28:12;;;;;;;12.57;5.37;;;;;;;;;;10498366;28;20032;-69
2023/11/11 09:33:12;;;;;;;14.63;6.15;;;;;;;;;;10499634;28;20045;-70
2023/11/11 09:38:13;;;;;;;17.67;8.00;;;;;;;;;;10498923;28;20103;-68
2023/11/11 09:43:13;;;;;;;12.57;5.63;;;;;;;;;;10475675;28;20091;-67
2023/11/11 09:48:13;;;;;;;6.32;4.07;;;;;;;;;;10495325;28;20297;-68
2023/11/11 09:53:14;;;;;;;8.52;4.18;;;;;;;;;;10495055;28;20113;-68
2023/11/11 09:58:15;;;;;;;13.55;6.18;;;;;;;;;;10495837;28;20062;-67
2023/11/11 10:03:17;;;;;;;15.90;6.10;;;;;;;;;;10497084;28;20079;-69
2023/11/11 10:08:17;;;;;;;9.30;4.97;;;;;;;;;;10496362;28;20028;-67
2023/11/11 10:13:17;;;;;;;12.23;6.05;;;;;;;;;;10496956;28;20427;-69
2023/11/11 10:18:19;;;;;;;14.43;6.10;;;;;;;;;;10495668;28;20095;-68
2023/11/11 10:23:20;;;;;;;9.30;4.97;;;;;;;;;;10494371;28;20036;-68
2023/11/11 10:28:20;;;;;;;6.13;4.50;;;;;;;;;;10495784;28;20302;-68
2023/11/11 10:33:20;;;;;;;12.63;4.57;;;;;;;;;;10495389;28;20040;-68
2023/11/11 10:38:20;;;;;;;7.40;4.60;;;;;;;;;;10494435;28;20036;-67
2023/11/11 10:43:21;;;;;;;8.05;3.25;;;;;;;;;;10494440;28;20088;-67
2023/11/11 10:48:22;;;;;;;8.57;3.72;;;;;;;;;;10509189;28;20036;-68
2023/11/11 10:53:27;;;;;;;6.65;2.13;;;;;;;;;;10494477;28;20024;-72
2023/11/11 10:58:28;;;;;;;2.45;1.55;;;;;;;;;;10490210;28;20357;-74
2023/11/11 11:03:29;;;;;;;6.93;2.15;;;;;;;;;;10493936;28;20040;-74
2023/11/11 11:08:46;;;;;;;2.95;0.88;;;;;;;;;;10494892;28;20032;-74
2023/11/11 11:13:49;;;;;;;1.48;0.70;;;;;;;;;;10493956;28;20101;-74
2023/11/11 11:18:56;;;;;;;2.38;0.55;;;;;;;;;;10482292;28;20024;-72
2023/11/11 11:23:56;;;;;;;;;;;;;;;;;;10469305;28;20309;-72
2023/11/11 11:29:10;;;;;;;1.92;0.30;;;;;;;;;;10475301;28;19980;-71
2023/11/11 11:34:11;;;;;;;3.03;0.95;;;;;;;;;;10492194;28;20437;-71
2023/11/11 11:39:12;;;;;;;6.60;0.60;;;;;;;;;;10491712;28;20047;-72
2023/11/11 11:44:12;;;;;;;3.33;0.68;;;;;;;;;;10491232;28;20345;-77
2023/11/11 11:49:12;;;;;;;0.60;0.60;;;;;;;;;;10502383;28;20219;-73
2023/11/11 11:54:12;;;;;;;0.40;0.30;;;;;;;;;;10486121;28;20323;-73
2023/11/11 11:59:13;;;;;;;0.95;0.43;;;;;;;;;;10505235;28;20322;-73
2023/11/11 12:04:14;;;;;;;1.10;0.25;;;;;;;;;;10505010;28;20328;-75
2023/11/11 12:09:17;;;;;;;1.50;0.50;;;;;;;;;;10506359;28;20013;-77
2023/11/11 12:14:17;;;;;;;1.65;0.82;;;;;;;;;;10504246;28;20040;-75
2023/11/11 12:19:21;;;;;;;0.23;0.20;;;;;;;;;;10503440;28;20032;-77
2023/11/11 12:24:25;;;;;;;10.95;0.57;;;;;;;;;;10502407;28;20051;-78
2023/11/11 12:29:25;;;;;;;0.55;0.52;;;;;;;;;;10502356;28;20075;-77
2023/11/11 12:34:29;;;;;;;0.20;0.20;;;;;;;;;;10484820;28;20051;-76
2023/11/11 12:39:29;;;;;;;1.05;0.30;;;;;;;;;;10500456;28;20107;-75
2023/11/11 12:44:35;;;;;;;0.55;0.38;;;;;;;;;;10503070;28;20036;-76
2023/11/11 12:49:38;;;;;;;0.73;0.20;;;;;;;;;;10503815;28;20028;-75
2023/11/11 12:54:38;;;;;;;0.30;0.30;;;;;;;;;;10510677;28;20100;-74
2023/11/11 12:59:52;;;;;;;0.63;0.40;;;;;;;;;;10514262;28;20051;-73
2023/11/11 13:04:52;;;;;;;0.10;0.10;;;;;;;;;;10496100;28;20067;-75
2023/11/11 13:09:53;;;;;;;1.27;1.00;;;;;;;;;;10496877;28;20052;-75
2023/11/11 13:14:57;;;;;;;0.40;0.10;;;;;;;;;;10498091;28;20286;-75
2023/11/11 13:19:59;;;;;;;1.30;0.20;;;;;;;;;;10512676;28;20036;-76
2023/11/11 13:25:00;;;;;;;0.75;0.40;;;;;;;;;;10497095;28;20311;-74
2023/11/11 13:30:01;;;;;;;1.20;0.30;;;;;;;;;;10497320;28;20230;-76
2023/11/11 13:35:03;;;;;;;0.43;0.38;;;;;;;;;;10496574;28;20063;-74
2023/11/11 13:40:19;;;;;;;1.42;0.22;;;;;;;;;;10497236;28;20033;-74
2023/11/11 13:45:19;;;;;;;2.70;0.22;;;;;;;;;;10500202;28;20028;-74
2023/11/11 13:50:21;;;;;;;0.30;0.20;;;;;;;;;;10496147;28;20340;-74
2023/11/11 13:55:22;;;;;;;0.10;0.10;;;;;;;;;;10497346;28;20311;-77
2023/11/11 14:00:28;;;;;;;0.45;0.20;;;;;;;;;;10510747;28;20051;-75
2023/11/11 14:05:29;;;;;;;1.65;0.55;;;;;;;;;;10492374;28;20041;-75
2023/11/11 14:10:29;;;;;;;8.07;1.35;;;;;;;;;;10492317;28;20036;-75
2023/11/11 14:15:39;;;;;;;0.82;0.20;;;;;;;;;;10495090;28;20619;-74
2023/11/11 14:20:44;;;;;;;2.15;0.28;;;;;;;;;;10494775;28;20310;-75
2023/11/11 14:25:45;;;;;;;0.40;0.20;;;;;;;;;;10495213;28;20074;-74
2023/11/11 14:30:46;;;;;;;1.20;0.17;;;;;;;;;;10493568;28;20289;-74
2023/11/11 14:35:46;;;;;;;2.75;0.35;;;;;;;;;;10490571;28;20262;-75
2023/11/11 14:40:47;;;;;;;2.57;0.43;;;;;;;;;;10494086;28;20068;-74
2023/11/11 14:45:47;;;;;;;3.27;0.40;;;;;;;;;;10492123;28;20047;-74
2023/11/11 14:50:47;;;;;;;0.98;0.30;;;;;;;;;;10489852;28;20275;-74
2023/11/11 14:55:48;;;;;;;1.02;0.47;;;;;;;;;;10492475;28;20032;-74
2023/11/11 15:00:49;;;;;;;0.35;0.08;;;;;;;;;;10492343;28;20074;-75
2023/11/11 15:05:50;;;;;;;2.50;0.20;;;;;;;;;;10489762;28;20533;-75
2023/11/11 15:10:50;;;;;;;0.20;0.20;;;;;;;;;;10483899;28;20086;-74
2023/11/11 15:15:50;;;;;;;1.00;0.20;;;;;;;;;;10489862;28;20444;-74
2023/11/11 15:20:50;;;;;;;0.40;0.10;;;;;;;;;;10486987;28;20091;-74
2023/11/11 15:25:52;;;;;;;2.77;0.30;;;;;;;;;;10486296;28;20675;-73
2023/11/11 15:30:54;;;;;;;0.30;0.20;;;;;;;;;;10483962;28;20044;-74
2023/11/11 15:35:55;;;;;;;1.58;0.38;;;;;;;;;;10497120;28;20075;-75
2023/11/11 15:40:56;;;;;;;1.10;0.35;;;;;;;;;;10478704;28;20092;-74
2023/11/11 15:45:57;;;;;;;9.65;0.57;;;;;;;;;;10496438;28;20222;-75
2023/11/11 15:50:58;;;;;;;0.47;0.30;;;;;;;;;;10511697;28;20063;-74
2023/11/11 15:55:58;;;;;;;1.38;0.60;;;;;;;;;;10496370;28;20239;-74
2023/11/11 16:00:58;;;;;;;2.10;0.30;;;;;;;;;;10495965;28;20036;-74
2023/11/11 16:05:59;;;;;;;0.57;0.50;;;;;;;;;;10496051;28;20036;-74
2023/11/11 16:10:59;;;;;;;2.97;1.33;;;;;;;;;;10496111;28;20040;-75
2023/11/11 16:15:59;;;;;;;0.40;0.30;;;;;;;;;;10496371;28;20091;-73
2023/11/11 16:21:00;;;;;;;14.40;3.58;;;;;;;;;;10495521;28;20341;-75
2023/11/11 16:26:01;;;;;;;0.15;0.10;;;;;;;;;;10468298;28;20222;-75
2023/11/11 16:31:01;;;;;;;5.47;0.32;;;;;;;;;;10495444;28;20048;-74
2023/11/11 16:36:02;;;;;;;2.83;0.50;;;;;;;;;;10502556;28;20379;-73
2023/11/11 16:41:03;;;;;;;0.68;0.40;;;;;;;;;;10504532;28;20263;-74
2023/11/11 16:46:03;;;;;;;6.55;0.50;;;;;;;;;;10504256;28;20094;-74
2023/11/11 16:51:05;;;;;;;0.70;0.30;;;;;;;;;;10504038;28;20025;-74
2023/11/11 16:56:08;;;;;;;1.25;0.50;;;;;;;;;;10505022;28;20033;-75
2023/11/11 17:01:11;;;;;;;1.00;0.30;;;;;;;;;;10503030;28;20037;-73
2023/11/11 17:06:12;;;;;;;0.88;0.50;;;;;;;;;;10503543;28;20325;-75
2023/11/11 17:11:12;;;;;;;5.10;0.50;;;;;;;;;;10485289;28;20208;-74
2023/11/11 17:16:13;;;;;;;5.07;1.80;;;;;;;;;;10485198;28;20029;-74
2023/11/11 17:21:13;;;;;;;5.22;1.20;;;;;;;;;;10504047;28;20028;-73
2023/11/11 17:26:13;;;;;;;6.03;1.20;;;;;;;;;;10502670;28;20044;-75
2023/11/11 17:31:13;;;;;;;2.92;0.77;;;;;;;;;;10502480;28;20063;-75
2023/11/11 17:36:14;;;;;;;1.80;0.70;;;;;;;;;;10502299;28;20107;-72
2023/11/11 17:41:14;;;;;;;0.80;0.40;;;;;;;;;;10486489;28;20037;-73
2023/11/11 17:46:21;;;;;;;1.10;0.40;;;;;;;;;;10486112;28;20081;-70
2023/11/11 17:51:22;;;;;;;0.82;0.55;;;;;;;;;;10501587;28;20275;-71
2023/11/11 17:56:23;;;;;;;1.38;0.47;;;;;;;;;;10501759;28;20092;-72
2023/11/11 18:01:23;;;;;;;5.25;0.40;;;;;;;;;;10483446;28;20060;-70
2023/11/11 18:06:24;;;;;;;1.00;0.40;;;;;;;;;;10501168;28;20024;-70
2023/11/11 18:11:25;;;;;;;0.65;0.20;;;;;;;;;;10499346;28;20032;-69
2023/11/11 18:16:25;;;;;;;2.90;0.32;;;;;;;;;;10482135;28;20475;-70
2023/11/11 18:21:26;;;;;;;1.75;0.50;;;;;;;;;;10497616;28;20034;-70
2023/11/11 18:26:27;;;;;;;1.17;0.38;;;;;;;;;;10489687;28;20357;-71
2023/11/11 18:31:27;;;;;;;0.40;0.07;;;;;;;;;;10494155;28;20257;-71
2023/11/11 18:36:29;;;;;;;2.13;0.45;;;;;;;;;;10500279;28;20130;-71
2023/11/11 18:41:29;;;;;;;1.33;0.45;;;;;;;;;;10500162;28;20054;-71
2023/11/11 18:46:30;;;;;;;2.15;0.20;;;;;;;;;;10499514;28;20025;-72
2023/11/11 18:51:30;;;;;;;3.08;0.20;;;;;;;;;;10499160;28;20230;-72
2023/11/11 18:56:30;;;;;;;1.40;0.22;;;;;;;;;;10498512;28;20142;-79
2023/11/11 19:01:30;;;;;;;4.03;0.88;;;;;;;;;;10499097;28;20135;-70
2023/11/11 19:06:32;;;;;;;3.35;0.40;;;;;;;;;;10497751;28;20024;-69
2023/11/11 19:11:32;;;;;;;0.90;0.50;;;;;;;;;;10495376;28;20093;-70
2023/11/11 19:16:33;;;;;;;0.40;0.25;;;;;;;;;;10497054;28;20073;-70
2023/11/11 19:21:39;;;;;;;3.37;0.47;;;;;;;;;;10496657;28;20032;-71
2023/11/11 19:26:40;;;;;;;3.53;0.57;;;;;;;;;;10496832;28;20313;-69
2023/11/11 19:31:40;;;;;;;1.08;0.32;;;;;;;;;;10495460;28;20045;-71
2023/11/11 19:36:41;;;;;;;1.63;0.50;;;;;;;;;;10494877;28;20027;-70
2023/11/11 19:41:41;;;;;;;3.60;0.43;;;;;;;;;;10492966;28;20040;-70
2023/11/11 19:46:41;;;;;;;0.77;0.33;;;;;;;;;;10493943;28;20043;-70
2023/11/11 19:51:42;;;;;;;0.75;0.20;;;;;;;;;;10469066;28;20264;-70
2023/11/11 19:56:44;;;;;;;2.65;0.30;;;;;;;;;;10471436;28;20230;-69
2023/11/11 20:01:44;;;;;;;0.85;0.20;;;;;;;;;;10493142;28;20076;-74
2023/11/11 20:06:46;;;;;;;1.30;0.35;;;;;;;;;;10512278;28;20218;-73
2023/11/11 20:11:47;;;;;;;1.13;0.30;;;;;;;;;;10505150;28;20114;-75
2023/11/11 20:16:48;;;;;;;0.80;0.30;;;;;;;;;;10486760;28;20181;-75
2023/11/11 20:21:49;;;;;;;0.85;0.40;;;;;;;;;;10506363;28;20036;-75
2023/11/11 20:26:49;;;;;;;2.85;0.50;;;;;;;;;;10504779;28;20048;-74
2023/11/11 20:31:49;;;;;;;2.50;0.38;;;;;;;;;;10504665;28;20049;-75
2023/11/11 20:36:50;;;;;;;0.20;0.20;;;;;;;;;;10486325;28;20033;-73
2023/11/11 20:41:50;;;;;;;0.60;0.22;;;;;;;;;;10503954;28;20079;-73
2023/11/11 20:46:52;;;;;;;3.30;0.32;;;;;;;;;;10486436;28;20032;-72
2023/11/11 20:51:52;;;;;;;1.65;0.30;;;;;;;;;;10486020;28;20029;-71
2023/11/11 20:56:52;;;;;;;0.52;0.20;;;;;;;;;;10503361;28;20100;-68
2023/11/11 21:01:52;;;;;;;0.60;0.35;;;;;;;;;;10503287;28;20250;-69
2023/11/11 21:06:53;;;;;;;1.55;0.10;;;;;;;;;;10502602;28;20226;-70
2023/11/11 21:11:53;;;;;;;2.70;0.30;;;;;;;;;;10501719;28;20043;-70
2023/11/11 21:16:54;;;;;;;3.03;0.47;;;;;;;;;;10510513;28;20227;-69
2023/11/11 21:21:55;;;;;;;0.20;0.20;;;;;;;;;;10487606;28;20234;-70
2023/11/11 21:26:55;;;;;;;0.30;0.08;;;;;;;;;;10501310;28;20060;-69
2023/11/11 21:31:55;;;;;;;11.93;0.40;;;;;;;;;;10501437;28;20390;-71
2023/11/11 21:36:56;;;;;;;2.20;0.30;;;;;;;;;;10501502;28;20070;-69
2023/11/11 21:41:56;;;;;;;1.58;0.30;;;;;;;;;;10501280;28;20198;-70
2023/11/11 21:46:58;;;;;;;0.80;0.52;;;;;;;;;;10501059;28;20318;-69
2023/11/11 21:51:58;;;;;;;2.95;1.08;;;;;;;;;;10500748;28;20024;-70
2023/11/11 21:56:58;;;;;;;1.48;1.00;;;;;;;;;;10501014;28;20303;-69
2023/11/11 22:01:58;;;;;;;5.63;1.75;;;;;;;;;;10500561;28;20032;-70
2023/11/11 22:06:59;;;;;;;8.00;2.10;;;;;;;;;;10499890;28;20242;-70
2023/11/11 22:11:59;;;;;;;2.70;1.60;;;;;;;;;;10475456;28;20021;-71
2023/11/11 22:16:59;;;;;;;3.92;1.38;;;;;;;;;;10500558;28;20085;-69
2023/11/11 22:21:59;;;;;;;3.35;1.20;;;;;;;;;;10500273;28;20238;-70
2023/11/11 22:27:00;;;;;;;4.45;1.50;;;;;;;;;;10500103;28;20112;-70
2023/11/11 22:32:00;;;;;;;4.35;1.85;;;;;;;;;;10498751;28;20040;-69
2023/11/11 22:37:00;;;;;;;2.00;1.40;;;;;;;;;;10499407;28;20021;-69
2023/11/11 22:42:01;;;;;;;2.03;1.10;;;;;;;;;;10498600;28;20357;-69
2023/11/11 22:47:02;;;;;;;2.13;1.45;;;;;;;;;;10499152;28;20031;-69
2023/11/11 22:52:03;;;;;;;3.97;1.85;;;;;;;;;;10499058;28;20032;-69
2023/11/11 22:57:03;;;;;;;5.97;1.53;;;;;;;;;;10498535;28;20483;-68
2023/11/11 23:02:03;;;;;;;1.70;1.10;;;;;;;;;;10498397;28;20262;-68
2023/11/11 23:07:03;;;;;;;1.63;1.30;;;;;;;;;;10498740;28;20024;-68
2023/11/11 23:12:05;;;;;;;1.38;1.27;;;;;;;;;;10498332;28;20028;-69
2023/11/11 23:17:06;;;;;;;2.72;1.50;;;;;;;;;;10498029;28;20218;-69
2023/11/11 23:22:06;;;;;;;2.90;1.60;;;;;;;;;;10497996;28;20028;-69
2023/11/11 23:27:10;;;;;;;2.92;1.75;;;;;;;;;;10498389;28;20075;-68
2023/11/11 23:32:10;;;;;;;2.00;1.00;;;;;;;;;;10479415;28;20063;-69
2023/11/11 23:37:11;;;;;;;3.15;1.30;;;;;;;;;;10497686;28;20034;-69
2023/11/11 23:42:11;;;;;;;5.80;1.63;;;;;;;;;;10496630;28;20013;-69
2023/11/11 23:47:12;;;;;;;2.45;1.33;;;;;;;;;;10496914;28;20029;-68
2023/11/11 23:52:13;;;;;;;3.15;1.50;;;;;;;;;;10497021;28;20024;-70
2023/11/11 23:57:13;;;;;;;2.90;1.10;;;;;;;;;;10496920;28;20042;-69
